Time,TemperatureF,DewpointF,PressureIn,WindDirection,WindDirectionDegrees,WindSpeedMPH,WindSpeedGustMPH,Humidity,HourlyPrecipIn,Conditions,Clouds,dailyrainin,SolarRadiationWatts/m^2,SoftwareType,DateUTC
2013-02-12 00:14:00,39.8,38.0,29.67,NNE,19,0.0,-999.0,94,-99.99,,,0.18,0,weatherlink.com 1.10,2013-02-12 05:14:00,
2013-02-12 00:29:00,39.0,38.0,29.67,NNE,19,0.0,-999.0,94,-99.99,,,0.18,0,weatherlink.com 1.10,2013-02-12 05:29:00,
2013-02-12 00:44:00,38.1,36.0,29.67,NNE,19,0.0,-999.0,93,-99.99,,,0.18,0,weatherlink.com 1.10,2013-02-12 05:44:00,
2013-02-12 00:59:00,37.0,36.0,29.68,NNE,19,0.0,-999.0,94,-99.99,,,0.18,0,weatherlink.com 1.10,2013-02-12 05:59:00,
2013-02-12 01:14:00,36.6,35.0,29.68,NNE,19,0.0,-999.0,95,-99.99,,,0.18,0,weatherlink.com 1.10,2013-02-12 06:14:00,
2013-02-12 01:29:00,36.4,35.0,29.68,NNE,19,0.0,-999.0,95,-99.99,,,0.18,0,weatherlink.com 1.10,2013-02-12 06:29:00,
2013-02-12 01:44:00,36.7,36.0,29.69,NW,309,1.0,-999.0,96,-99.99,,,0.18,0,weatherlink.com 1.10,2013-02-12 06:44:00,
2013-02-12 01:59:00,38.0,36.0,29.69,WNW,295,0.0,-999.0,93,-99.99,,,0.00,0,weatherlink.com 1.10,2013-02-12 06:59:00,
2013-02-12 02:14:00,39.2,36.0,29.69,NW,310,0.0,-999.0,87,-99.99,,,0.00,0,weatherlink.com 1.10,2013-02-12 07:14:00,
2013-02-12 02:29:00,39.7,35.0,29.70,NW,310,0.0,-999.0,84,-99.99,,,0.00,0,weatherlink.com 1.10,2013-02-12 07:29:00,
2013-02-12 02:44:00,39.8,35.0,29.70,West,275,0.0,-999.0,82,-99.99,,,0.00,0,weatherlink.com 1.10,2013-02-12 07:44:00,
2013-02-12 02:59:00,39.1,35.0,29.70,West,275,0.0,-999.0,85,-99.99,,,0.00,0,weatherlink.com 1.10,2013-02-12 07:59:00,
2013-02-12 03:14:00,38.5,35.0,29.71,West,275,0.0,-999.0,87,-99.99,,,0.00,0,weatherlink.com 1.10,2013-02-12 08:14:00,
2013-02-12 03:29:00,38.4,35.0,29.71,West,275,0.0,-999.0,86,-99.99,,,0.00,0,weatherlink.com 1.10,2013-02-12 08:29:00,
2013-02-12 03:44:00,39.1,34.0,29.71,West,280,2.0,-999.0,81,-99.99,,,0.00,0,weatherlink.com 1.10,2013-02-12 08:44:00,
2013-02-12 03:59:00,39.6,33.0,29.71,West,269,4.0,-999.0,78,-99.99,,,0.00,0,weatherlink.com 1.10,2013-02-12 08:59:00,
2013-02-12 04:14:00,39.6,33.0,29.71,NW,304,5.0,-999.0,77,-99.99,,,0.00,0,weatherlink.com 1.10,2013-02-12 09:14:00,
2013-02-12 04:29:00,39.6,32.0,29.72,West,263,1.0,-999.0,75,-99.99,,,0.00,0,weatherlink.com 1.10,2013-02-12 09:29:00,
2013-02-12 04:44:00,39.8,32.0,29.71,WSW,238,3.0,-999.0,73,-99.99,,,0.00,0,weatherlink.com 1.10,2013-02-12 09:44:00,
2013-02-12 04:59:00,39.8,31.0,29.72,WSW,257,3.0,-999.0,71,-99.99,,,0.00,0,weatherlink.com 1.10,2013-02-12 09:59:00,
2013-02-12 05:14:00,40.0,31.0,29.73,West,276,5.0,-999.0,69,-99.99,,,0.00,0,weatherlink.com 1.10,2013-02-12 10:14:00,
2013-02-12 05:29:00,39.8,30.0,29.73,WSW,242,5.0,-999.0,69,-99.99,,,0.00,0,weatherlink.com 1.10,2013-02-12 10:29:00,
2013-02-12 05:44:00,39.9,30.0,29.73,NW,304,5.0,-999.0,68,-99.99,,,0.00,0,weatherlink.com 1.10,2013-02-12 10:44:00,
2013-02-12 05:59:00,39.8,30.0,29.73,WNW,298,1.0,-999.0,68,-99.99,,,0.00,0,weatherlink.com 1.10,2013-02-12 10:59:00,
2013-02-12 06:14:00,39.8,30.0,29.73,West,270,5.0,-999.0,67,-99.99,,,0.00,0,weatherlink.com 1.10,2013-02-12 11:14:00,
2013-02-12 06:29:00,39.7,29.0,29.74,NW,307,5.0,-999.0,67,-99.99,,,0.00,0,weatherlink.com 1.10,2013-02-12 11:29:00,
2013-02-12 06:44:00,39.8,29.0,29.74,West,260,2.0,-999.0,66,-99.99,,,0.00,0,weatherlink.com 1.10,2013-02-12 11:44:00,
2013-02-12 06:59:00,39.7,29.0,29.75,NNW,346,3.0,-999.0,66,-99.99,,,0.00,0,weatherlink.com 1.10,2013-02-12 11:59:00,
2013-02-12 07:14:00,39.6,29.0,29.75,West,276,5.0,-999.0,65,-99.99,,,0.00,0,weatherlink.com 1.10,2013-02-12 12:14:00,
2013-02-12 07:29:00,39.6,29.0,29.76,West,281,2.0,-999.0,66,-99.99,,,0.00,5,weatherlink.com 1.10,2013-02-12 12:29:00,
2013-02-12 07:44:00,39.5,29.0,29.76,WSW,252,5.0,-999.0,67,-99.99,,,0.00,12,weatherlink.com 1.10,2013-02-12 12:44:00,
2013-02-12 07:59:00,39.6,29.0,29.77,WNW,287,7.0,-999.0,67,-99.99,,,0.00,26,weatherlink.com 1.10,2013-02-12 12:59:00,
2013-02-12 08:14:00,39.6,29.0,29.77,WSW,256,2.0,-999.0,66,-99.99,,,0.00,23,weatherlink.com 1.10,2013-02-12 13:14:00,
2013-02-12 08:29:00,39.7,29.0,29.78,WSW,252,0.0,-999.0,67,-99.99,,,0.00,32,weatherlink.com 1.10,2013-02-12 13:29:00,
2013-02-12 08:44:00,39.7,29.0,29.79,West,279,4.0,-999.0,67,-99.99,,,0.00,44,weatherlink.com 1.10,2013-02-12 13:44:00,
2013-02-12 08:59:00,39.8,29.0,29.79,West,277,1.0,-999.0,66,-99.99,,,0.00,53,weatherlink.com 1.10,2013-02-12 13:59:00,
2013-02-12 09:14:00,39.8,29.0,29.79,WSW,252,5.0,-999.0,66,-99.99,,,0.00,60,weatherlink.com 1.10,2013-02-12 14:14:00,
2013-02-12 09:29:00,39.9,29.0,29.79,NNW,331,2.0,-999.0,66,-99.99,,,0.00,83,weatherlink.com 1.10,2013-02-12 14:29:00,
2013-02-12 09:44:00,40.0,30.0,29.80,WNW,284,5.0,-999.0,67,-99.99,,,0.00,116,weatherlink.com 1.10,2013-02-12 14:44:00,
2013-02-12 09:59:00,40.1,29.0,29.80,West,267,4.0,-999.0,65,-99.99,,,0.00,123,weatherlink.com 1.10,2013-02-12 14:59:00,
2013-02-12 10:14:00,40.2,29.0,29.80,North,350,2.0,-999.0,64,-99.99,,,0.00,151,weatherlink.com 1.10,2013-02-12 15:14:00,
2013-02-12 10:29:00,40.4,29.0,29.81,WNW,303,5.0,-999.0,63,-99.99,,,0.00,163,weatherlink.com 1.10,2013-02-12 15:29:00,
2013-02-12 10:44:00,40.7,28.0,29.81,WSW,257,8.0,-999.0,62,-99.99,,,0.00,144,weatherlink.com 1.10,2013-02-12 15:44:00,
2013-02-12 11:00:00,40.9,29.0,29.81,NW,305,3.0,-999.0,62,-99.99,,,0.00,160,weatherlink.com 1.10,2013-02-12 16:00:00,
2013-02-12 11:14:00,40.9,28.0,29.82,NNW,338,6.0,-999.0,61,-99.99,,,0.00,209,weatherlink.com 1.10,2013-02-12 16:14:00,
2013-02-12 11:29:00,41.3,28.0,29.82,WNW,283,4.0,-999.0,60,-99.99,,,0.00,719,weatherlink.com 1.10,2013-02-12 16:29:00,
2013-02-12 11:45:00,41.5,28.0,29.82,North,350,6.0,-999.0,60,-99.99,,,0.00,229,weatherlink.com 1.10,2013-02-12 16:45:00,
2013-02-12 12:00:00,41.2,28.0,29.82,NW,325,4.0,-999.0,59,-99.99,,,0.00,250,weatherlink.com 1.10,2013-02-12 17:00:00,
2013-02-12 12:15:00,41.3,28.0,29.81,North,355,4.0,-999.0,60,-99.99,,,0.00,332,weatherlink.com 1.10,2013-02-12 17:15:00,
2013-02-12 12:30:00,41.4,28.0,29.81,West,281,12.0,-999.0,60,-99.99,,,0.00,306,weatherlink.com 1.10,2013-02-12 17:30:00,
2013-02-12 12:45:00,41.9,28.0,29.81,WNW,293,4.0,-999.0,59,-99.99,,,0.00,675,weatherlink.com 1.10,2013-02-12 17:45:00,
2013-02-12 13:00:00,42.5,28.0,29.82,NNW,331,4.0,-999.0,57,-99.99,,,0.00,181,weatherlink.com 1.10,2013-02-12 18:00:00,
2013-02-12 13:15:00,41.6,28.0,29.83,NW,318,5.0,-999.0,58,-99.99,,,0.00,276,weatherlink.com 1.10,2013-02-12 18:15:00,
2013-02-12 13:30:00,41.6,28.0,29.83,WSW,246,5.0,-999.0,59,-99.99,,,0.00,120,weatherlink.com 1.10,2013-02-12 18:30:00,
2013-02-12 13:45:00,41.3,28.0,29.84,WNW,286,4.0,-999.0,59,-99.99,,,0.00,118,weatherlink.com 1.10,2013-02-12 18:45:00,
2013-02-12 14:00:00,41.1,28.0,29.84,West,262,9.0,-999.0,59,-99.99,,,0.00,113,weatherlink.com 1.10,2013-02-12 19:00:00,
2013-02-12 14:15:00,40.8,27.0,29.84,West,279,4.0,-999.0,59,-99.99,,,0.00,251,weatherlink.com 1.10,2013-02-12 19:15:00,
2013-02-12 14:30:00,41.4,28.0,29.84,NW,314,8.0,-999.0,59,-99.99,,,0.00,183,weatherlink.com 1.10,2013-02-12 19:30:00,
2013-02-12 14:45:00,40.8,27.0,29.84,West,279,3.0,-999.0,59,-99.99,,,0.00,158,weatherlink.com 1.10,2013-02-12 19:45:00,
2013-02-12 15:00:00,41.0,27.0,29.83,NNW,338,4.0,-999.0,59,-99.99,,,0.00,339,weatherlink.com 1.10,2013-02-12 20:00:00,
2013-02-12 15:15:00,41.5,27.0,29.83,NNW,343,7.0,-999.0,57,-99.99,,,0.00,202,weatherlink.com 1.10,2013-02-12 20:15:00,
2013-02-12 15:30:00,41.3,28.0,29.83,WNW,296,3.0,-999.0,59,-99.99,,,0.00,295,weatherlink.com 1.10,2013-02-12 20:30:00,
2013-02-12 15:45:00,41.2,27.0,29.83,West,259,2.0,-999.0,58,-99.99,,,0.00,211,weatherlink.com 1.10,2013-02-12 20:45:00,
2013-02-12 16:00:00,41.4,27.0,29.82,West,273,2.0,-999.0,58,-99.99,,,0.00,135,weatherlink.com 1.10,2013-02-12 21:00:00,
2013-02-12 16:15:00,41.3,27.0,29.82,WNW,303,9.0,-999.0,58,-99.99,,,0.00,118,weatherlink.com 1.10,2013-02-12 21:15:00,
2013-02-12 16:30:00,40.9,27.0,29.82,West,280,6.0,-999.0,59,-99.99,,,0.00,98,weatherlink.com 1.10,2013-02-12 21:30:00,
2013-02-12 16:45:00,40.3,27.0,29.80,North,5,2.0,-999.0,60,-99.99,,,0.00,32,weatherlink.com 1.10,2013-02-12 21:45:00,
2013-02-12 17:00:00,40.0,27.0,29.79,NW,316,1.0,-999.0,61,-99.99,,,0.00,25,weatherlink.com 1.10,2013-02-12 22:00:00,
2013-02-12 17:15:00,39.6,27.0,29.81,West,277,0.0,-999.0,61,-99.99,,,0.00,12,weatherlink.com 1.10,2013-02-12 22:15:00,
2013-02-12 17:30:00,39.2,27.0,29.83,WNW,298,1.0,-999.0,62,-99.99,,,0.00,5,weatherlink.com 1.10,2013-02-12 22:30:00,
2013-02-12 18:00:00,38.1,28.0,29.86,West,270,5.0,-999.0,66,-99.99,,,0.00,0,weatherlink.com 1.10,2013-02-12 23:00:00,
2013-02-12 18:15:00,38.0,27.0,29.88,West,264,5.0,-999.0,65,-99.99,,,0.00,0,weatherlink.com 1.10,2013-02-12 23:15:00,
2013-02-12 18:30:00,38.2,27.0,29.91,West,272,2.0,-999.0,65,-99.99,,,0.00,0,weatherlink.com 1.10,2013-02-12 23:30:00,
2013-02-12 18:45:00,38.3,27.0,29.92,NW,310,3.0,-999.0,63,-99.99,,,0.00,0,weatherlink.com 1.10,2013-02-12 23:45:00,
2013-02-12 19:00:00,38.3,26.0,29.92,West,263,9.0,-999.0,62,-99.99,,,0.00,0,weatherlink.com 1.10,2013-02-13 00:00:00,
2013-02-12 19:15:00,38.2,26.0,29.91,West,268,1.0,-999.0,62,-99.99,,,0.00,0,weatherlink.com 1.10,2013-02-13 00:15:00,
2013-02-12 19:30:00,38.2,26.0,29.92,NNW,336,3.0,-999.0,62,-99.99,,,0.00,0,weatherlink.com 1.10,2013-02-13 00:30:00,
2013-02-12 19:45:00,38.3,26.0,29.92,WNW,298,0.0,-999.0,62,-99.99,,,0.00,0,weatherlink.com 1.10,2013-02-13 00:45:00,
2013-02-12 20:00:00,38.2,26.0,29.91,West,275,0.0,-999.0,62,-99.99,,,0.00,0,weatherlink.com 1.10,2013-02-13 01:00:00,
2013-02-12 20:15:00,38.2,26.0,29.90,WNW,302,4.0,-999.0,62,-99.99,,,0.00,0,weatherlink.com 1.10,2013-02-13 01:15:00,
2013-02-12 20:30:00,38.1,26.0,29.91,WNW,282,3.0,-999.0,62,-99.99,,,0.00,0,weatherlink.com 1.10,2013-02-13 01:30:00,
2013-02-12 20:45:00,37.9,26.0,29.90,WNW,282,0.0,-999.0,62,-99.99,,,0.00,0,weatherlink.com 1.10,2013-02-13 01:45:00,
2013-02-12 21:00:00,38.0,26.0,29.90,WNW,282,0.0,-999.0,63,-99.99,,,0.00,0,weatherlink.com 1.10,2013-02-13 02:00:00,
2013-02-12 21:15:00,37.9,26.0,29.90,West,271,0.0,-999.0,62,-99.99,,,0.00,0,weatherlink.com 1.10,2013-02-13 02:15:00,
2013-02-12 21:30:00,37.7,26.0,29.88,WNW,284,3.0,-999.0,63,-99.99,,,0.00,0,weatherlink.com 1.10,2013-02-13 02:30:00,
2013-02-12 21:45:00,37.6,26.0,29.88,WNW,288,2.0,-999.0,63,-99.99,,,0.00,0,weatherlink.com 1.10,2013-02-13 02:45:00,
2013-02-12 22:00:00,37.6,26.0,29.87,WNW,287,2.0,-999.0,63,-99.99,,,0.00,0,weatherlink.com 1.10,2013-02-13 03:00:00,
2013-02-12 22:15:00,37.4,26.0,29.88,West,280,0.0,-999.0,64,-99.99,,,0.00,0,weatherlink.com 1.10,2013-02-13 03:15:00,
2013-02-12 22:30:00,37.3,26.0,29.87,WNW,299,2.0,-999.0,64,-99.99,,,0.00,0,weatherlink.com 1.10,2013-02-13 03:30:00,
2013-02-12 22:45:00,37.3,26.0,29.87,WNW,287,0.0,-999.0,63,-99.99,,,0.00,0,weatherlink.com 1.10,2013-02-13 03:45:00,
2013-02-12 23:00:00,37.4,26.0,29.88,WNW,287,0.0,-999.0,63,-99.99,,,0.00,0,weatherlink.com 1.10,2013-02-13 04:00:00,
2013-02-12 23:15:00,37.3,26.0,29.87,NNW,333,2.0,-999.0,63,-99.99,,,0.00,0,weatherlink.com 1.10,2013-02-13 04:15:00,
2013-02-12 23:30:00,37.0,26.0,29.88,WNW,286,0.0,-999.0,64,-99.99,,,0.00,0,weatherlink.com 1.10,2013-02-13 04:30:00,
2013-02-12 23:45:00,37.0,26.0,29.87,WNW,286,0.0,-999.0,64,-99.99,,,0.00,0,weatherlink.com 1.10,2013-02-13 04:45:00,